Time;durP1;ratioP1;P1;durP2;ratioP2;P2;SDS_P1;SDS_P2;PMS_P1;PMS_P2;Temp;Humidity;BMP_temperature;BMP_pressure;BME280_temperature;BME280_humidity;BME280_pressure;Samples;Min_cycle;Max_cycle;Signal;HPM_P1;HPM_P2
2024/01/03 00:01:49;;;;;;;2.67;2.67;;;10.20;99.90;;;;;;10524148;28;20261;-75
2024/01/03 00:06:51;;;;;;;3.20;3.00;;;10.10;99.90;;;;;;10515531;28;20197;-76
2024/01/03 00:11:55;;;;;;;3.40;3.30;;;10.00;99.90;;;;;;10524284;28;20228;-75
2024/01/03 00:17:03;;;;;;;3.27;3.17;;;10.00;99.90;;;;;;10533324;28;20203;-77
2024/01/03 00:22:09;;;;;;;3.67;3.57;;;10.00;99.90;;;;;;10524439;28;20219;-76
2024/01/03 00:27:11;;;;;;;3.40;3.20;;;10.00;99.90;;;;;;10526006;28;20253;-77
2024/01/03 00:32:15;;;;;;;2.77;2.67;;;10.00;99.90;;;;;;10506466;28;20243;-76
2024/01/03 00:37:24;;;;;;;3.00;2.80;;;10.00;99.90;;;;;;10506072;28;20212;-77
2024/01/03 00:42:27;;;;;;;3.03;2.83;;;10.00;99.90;;;;;;10487613;28;20208;-77
2024/01/03 00:47:31;;;;;;;4.30;2.30;;;10.00;99.90;;;;;;10505110;28;20241;-76
2024/01/03 00:52:33;;;;;;;2.50;2.30;;;10.00;99.90;;;;;;10527884;28;20284;-77
2024/01/03 00:57:36;;;;;;;3.43;2.47;;;10.10;99.90;;;;;;10505720;28;20692;-77
2024/01/03 01:02:40;;;;;;;2.40;2.20;;;10.10;99.90;;;;;;10505331;28;20721;-77
2024/01/03 01:07:42;;;;;;;2.70;2.10;;;10.20;99.90;;;;;;10488102;28;20605;-77
2024/01/03 01:12:44;;;;;;;2.00;1.90;;;10.30;99.90;;;;;;10459626;28;20279;-77
2024/01/03 01:17:48;;;;;;;2.00;1.90;;;10.40;99.90;;;;;;10466033;28;20250;-77
2024/01/03 01:22:50;;;;;;;1.97;1.87;;;10.40;99.90;;;;;;10480473;28;20694;-76
2024/01/03 01:27:53;;;;;;;4.10;1.73;;;10.40;99.90;;;;;;10464710;28;20259;-77
2024/01/03 01:32:56;;;;;;;4.17;1.77;;;10.40;99.90;;;;;;10479429;28;20227;-77
2024/01/03 01:38:03;;;;;;;2.73;2.20;;;10.30;99.90;;;;;;10479538;28;20231;-78
2024/01/03 01:43:05;;;;;;;3.27;2.17;;;10.30;99.90;;;;;;10480166;28;20219;-77
2024/01/03 01:48:09;;;;;;;1.87;1.70;;;10.30;99.90;;;;;;10476207;28;20192;-76
2024/01/03 01:53:13;;;;;;;2.00;1.60;;;10.30;99.90;;;;;;10480025;28;20232;-77
2024/01/03 01:58:15;;;;;;;1.70;1.60;;;10.40;99.90;;;;;;10479846;28;20263;-77
2024/01/03 02:03:20;;;;;;;2.40;1.60;;;10.50;99.90;;;;;;10492372;28;20573;-77
2024/01/03 02:08:25;;;;;;;1.87;1.40;;;10.50;99.90;;;;;;10475842;28;20533;-78
2024/01/03 02:13:27;;;;;;;2.40;1.33;;;10.40;99.90;;;;;;10506231;28;20216;-77
2024/01/03 02:18:31;;;;;;;1.30;1.30;;;10.40;99.90;;;;;;10477668;28;20188;-78
2024/01/03 02:23:34;;;;;;;1.57;1.47;;;10.40;99.90;;;;;;10477563;28;20258;-76
2024/01/03 02:28:37;;;;;;;1.40;1.40;;;10.30;99.90;;;;;;10477122;28;20201;-76
2024/01/03 02:33:39;;;;;;;1.87;1.40;;;10.30;99.90;;;;;;10478836;28;20580;-77
2024/01/03 02:38:46;;;;;;;1.17;1.17;;;10.30;99.90;;;;;;10477964;28;20642;-76
2024/01/03 02:43:48;;;;;;;1.47;1.30;;;10.30;99.90;;;;;;10476221;28;20233;-76
2024/01/03 02:48:51;;;;;;;1.30;1.20;;;10.20;99.90;;;;;;10487359;28;20201;-76
2024/01/03 02:53:54;;;;;;;1.80;1.70;;;10.20;99.90;;;;;;10485785;28;20291;-77
2024/01/03 02:58:57;;;;;;;1.73;1.40;;;10.20;99.90;;;;;;10487639;28;20206;-77
2024/01/03 03:03:59;;;;;;;1.60;1.50;;;10.10;99.90;;;;;;10486887;28;20202;-76
2024/01/03 03:09:04;;;;;;;1.50;1.50;;;10.00;99.90;;;;;;10491901;28;20270;-76
2024/01/03 03:14:07;;;;;;;3.10;1.73;;;9.90;99.90;;;;;;10485438;28;20221;-77
2024/01/03 03:19:10;;;;;;;1.60;1.50;;;9.80;99.90;;;;;;10472498;28;20208;-76
2024/01/03 03:24:14;;;;;;;2.37;2.17;;;9.70;99.90;;;;;;10488720;28;20197;-77
2024/01/03 03:29:16;;;;;;;1.70;1.60;;;9.70;99.90;;;;;;10490966;28;20276;-77
2024/01/03 03:34:18;;;;;;;3.73;1.83;;;9.70;99.90;;;;;;10487233;28;20705;-77
2024/01/03 03:39:22;;;;;;;1.80;1.77;;;9.70;99.90;;;;;;10488220;28;20311;-77
2024/01/03 03:44:24;;;;;;;1.80;1.70;;;9.70;99.90;;;;;;10485567;28;20695;-77
2024/01/03 03:49:26;;;;;;;2.20;2.10;;;9.70;99.90;;;;;;10489742;28;20220;-77
2024/01/03 03:54:30;;;;;;;2.50;2.33;;;9.70;99.90;;;;;;10488338;28;20223;-75
2024/01/03 03:59:32;;;;;;;2.33;2.13;;;9.70;99.90;;;;;;10470231;28;20232;-77
2024/01/03 04:04:35;;;;;;;2.33;2.23;;;9.70;99.90;;;;;;10488451;28;20250;-77
2024/01/03 04:09:38;;;;;;;7.73;2.70;;;9.70;99.90;;;;;;10486917;28;20227;-77
2024/01/03 04:14:41;;;;;;;2.40;2.30;;;9.80;99.90;;;;;;10529628;28;20435;-76
2024/01/03 04:19:43;;;;;;;4.03;2.87;;;9.80;99.90;;;;;;10502702;28;20643;-77
2024/01/03 04:24:47;;;;;;;2.27;2.07;;;9.90;99.90;;;;;;10496054;28;20199;-77
2024/01/03 04:29:49;;;;;;;2.47;2.30;;;9.90;99.90;;;;;;10525343;28;20227;-77
2024/01/03 04:34:51;;;;;;;3.30;2.50;;;9.90;99.90;;;;;;10525975;28;20580;-77
2024/01/03 04:39:55;;;;;;;1.60;1.50;;;9.90;99.90;;;;;;10505105;28;20297;-77
2024/01/03 04:44:57;;;;;;;2.23;2.07;;;9.90;99.90;;;;;;10526516;28;20206;-77
2024/01/03 04:50:00;;;;;;;2.17;2.00;;;9.90;99.90;;;;;;10527061;28;20215;-74
2024/01/03 04:55:04;;;;;;;2.07;1.97;;;9.90;99.90;;;;;;10527330;28;20188;-77
2024/01/03 05:00:07;;;;;;;2.93;2.37;;;9.90;99.90;;;;;;10528735;28;20276;-77
2024/01/03 05:05:09;;;;;;;3.43;2.10;;;9.90;99.90;;;;;;10527044;28;20249;-77
2024/01/03 05:10:13;;;;;;;2.10;2.00;;;9.90;99.90;;;;;;10506293;28;20220;-76
2024/01/03 05:15:15;;;;;;;2.10;1.90;;;10.00;99.90;;;;;;10490168;28;20612;-76
2024/01/03 05:20:18;;;;;;;2.30;2.10;;;10.00;99.90;;;;;;10489641;28;20238;-77
2024/01/03 05:25:21;;;;;;;4.83;2.00;;;9.90;99.90;;;;;;10466017;28;20331;-77
2024/01/03 05:30:24;;;;;;;2.10;2.00;;;10.00;99.90;;;;;;10466181;28;20220;-77
2024/01/03 05:35:26;;;;;;;2.67;2.50;;;10.00;99.90;;;;;;10476389;28;20204;-78
2024/01/03 05:40:30;;;;;;;4.50;2.00;;;10.00;99.90;;;;;;10489404;28;20220;-77
2024/01/03 05:45:32;;;;;;;1.90;1.80;;;9.90;99.90;;;;;;10488437;28;20257;-77
2024/01/03 05:50:34;;;;;;;6.07;2.40;;;10.00;99.90;;;;;;10478162;28;20231;-77
2024/01/03 05:55:38;;;;;;;2.03;1.93;;;9.90;99.90;;;;;;10484834;28;20201;-76
2024/01/03 06:00:40;;;;;;;7.93;2.13;;;10.00;99.90;;;;;;10485089;28;20219;-76
2024/01/03 06:05:43;;;;;;;5.07;2.27;;;10.10;99.90;;;;;;10499679;28;20626;-77
2024/01/03 06:10:46;;;;;;;2.70;2.13;;;10.10;99.90;;;;;;10498937;28;20317;-77
2024/01/03 06:15:49;;;;;;;6.93;2.27;;;10.10;99.90;;;;;;10471053;28;20196;-76
2024/01/03 06:20:51;;;;;;;1.93;1.83;;;10.20;99.90;;;;;;10488717;28;20228;-77
2024/01/03 06:25:55;;;;;;;2.40;2.10;;;10.20;99.90;;;;;;10501386;28;20242;-77
2024/01/03 06:30:57;;;;;;;2.47;2.00;;;10.20;99.90;;;;;;10487432;28;20281;-77
2024/01/03 06:36:00;;;;;;;2.30;2.10;;;10.20;99.90;;;;;;10506352;28;20258;-76
2024/01/03 06:41:04;;;;;;;2.43;2.33;;;10.10;99.90;;;;;;10503010;28;20270;-77
2024/01/03 06:46:06;;;;;;;6.47;2.10;;;10.20;99.90;;;;;;10504258;28;20207;-77
2024/01/03 06:51:09;;;;;;;2.07;1.90;;;10.20;99.90;;;;;;10474601;28;20722;-76
2024/01/03 06:56:12;;;;;;;1.90;1.80;;;10.10;99.90;;;;;;10444348;28;20250;-76
2024/01/03 07:01:15;;;;;;;2.10;2.00;;;10.10;99.90;;;;;;10478627;28;20718;-77
2024/01/03 07:06:17;;;;;;;2.83;1.73;;;10.10;99.90;;;;;;10464843;28;20204;-76
2024/01/03 07:11:21;;;;;;;3.00;2.80;;;10.10;99.90;;;;;;10495172;28;20224;-78
2024/01/03 07:16:23;;;;;;;3.70;1.70;;;10.10;99.90;;;;;;10501431;28;20204;-78
2024/01/03 07:21:27;;;;;;;2.37;2.10;;;10.10;99.90;;;;;;10487444;28;20311;-78
2024/01/03 07:26:30;;;;;;;4.10;1.90;;;10.10;99.90;;;;;;10467965;28;20211;-78
2024/01/03 07:31:33;;;;;;;2.43;2.00;;;10.20;99.90;;;;;;10485443;28;20642;-77
2024/01/03 07:36:35;;;;;;;3.77;2.70;;;10.30;99.90;;;;;;10471308;28;20205;-78
2024/01/03 07:41:39;;;;;;;1.97;1.87;;;10.30;99.90;;;;;;10479243;28;20323;-78
2024/01/03 07:46:41;;;;;;;2.53;1.70;;;10.30;99.90;;;;;;10485241;28;20193;-78
2024/01/03 07:51:45;;;;;;;1.87;1.73;;;10.40;99.90;;;;;;10464800;28;20704;-77
2024/01/03 07:56:49;;;;;;;2.90;2.10;;;10.40;99.90;;;;;;10493463;28;20232;-78
2024/01/03 08:01:51;;;;;;;2.43;2.20;;;10.40;99.90;;;;;;10466527;28;20212;-77
2024/01/03 08:06:53;;;;;;;2.10;1.90;;;10.40;99.90;;;;;;10492062;28;20682;-77
2024/01/03 08:11:57;;;;;;;2.93;1.60;;;10.40;99.90;;;;;;10473312;28;20223;-77
2024/01/03 08:16:59;;;;;;;2.00;1.63;;;10.40;99.90;;;;;;10484242;28;20563;-78
2024/01/03 08:22:02;;;;;;;2.20;1.70;;;10.50;99.90;;;;;;10456324;28;20214;-77
2024/01/03 08:27:06;;;;;;;4.67;2.10;;;10.50;99.90;;;;;;10473673;28;20192;-77
2024/01/03 08:32:08;;;;;;;2.10;1.60;;;10.60;99.90;;;;;;10487436;28;20641;-77
2024/01/03 08:37:11;;;;;;;3.27;1.60;;;10.70;99.90;;;;;;10475648;28;20201;-78
2024/01/03 08:42:14;;;;;;;5.80;1.93;;;10.80;99.90;;;;;;10493303;28;20248;-77
2024/01/03 08:47:16;;;;;;;4.83;1.53;;;10.80;99.90;;;;;;10485257;28;20201;-77
2024/01/03 08:52:19;;;;;;;1.97;1.40;;;10.90;99.90;;;;;;10457821;28;20660;-77
2024/01/03 08:57:23;;;;;;;3.37;1.50;;;10.90;99.90;;;;;;10473224;28;20201;-77
2024/01/03 09:02:25;;;;;;;2.30;1.70;;;10.80;99.90;;;;;;10461104;28;20201;-77
2024/01/03 09:07:27;;;;;;;2.20;1.77;;;10.70;99.90;;;;;;10493566;28;20231;-77
2024/01/03 09:12:31;;;;;;;6.07;1.80;;;10.60;99.90;;;;;;10493165;28;20224;-77
2024/01/03 09:17:33;;;;;;;2.13;1.50;;;10.70;99.90;;;;;;10491986;28;20197;-78
2024/01/03 09:22:36;;;;;;;3.60;2.07;;;10.70;99.90;;;;;;10458250;28;20626;-78
2024/01/03 09:27:39;;;;;;;1.57;1.47;;;10.70;99.90;;;;;;10491618;28;20193;-77
2024/01/03 09:32:42;;;;;;;3.83;1.50;;;10.80;99.90;;;;;;10457532;28;20257;-78
2024/01/03 09:37:44;;;;;;;1.30;1.20;;;10.80;99.90;;;;;;10494321;28;20209;-77
2024/01/03 09:42:49;;;;;;;3.60;1.43;;;10.90;99.90;;;;;;10493352;28;20205;-77
2024/01/03 09:47:51;;;;;;;2.07;1.80;;;10.90;99.90;;;;;;10471887;28;20189;-77
2024/01/03 09:52:55;;;;;;;6.43;1.80;;;11.00;99.90;;;;;;10457237;28;20228;-78
2024/01/03 09:57:59;;;;;;;1.80;1.70;;;11.00;99.90;;;;;;10478657;28;20251;-77
2024/01/03 10:03:02;;;;;;;2.37;1.47;;;11.00;99.90;;;;;;10464115;28;20376;-77
2024/01/03 10:08:16;;;;;;;1.93;1.73;;;11.00;99.90;;;;;;10499300;28;20273;-75
2024/01/03 10:13:21;;;;;;;2.40;1.73;;;11.10;99.90;;;;;;10497753;28;20221;-77
2024/01/03 10:18:23;;;;;;;3.33;1.50;;;11.10;99.90;;;;;;10495756;28;20639;-77
2024/01/03 10:23:26;;;;;;;2.97;1.60;;;11.00;99.90;;;;;;10462797;28;20281;-78
2024/01/03 10:28:29;;;;;;;1.67;1.57;;;11.00;99.90;;;;;;10495528;28;20274;-76
2024/01/03 10:33:32;;;;;;;3.40;2.03;;;11.00;99.90;;;;;;10458913;28;20693;-76
2024/01/03 10:38:36;;;;;;;1.73;1.63;;;10.90;99.90;;;;;;10496671;28;20271;-77
2024/01/03 10:43:40;;;;;;;2.73;1.57;;;11.00;99.90;;;;;;10496470;28;20743;-76
2024/01/03 10:48:42;;;;;;;3.43;1.60;;;11.00;99.90;;;;;;10476378;28;20192;-77
2024/01/03 10:53:46;;;;;;;5.27;2.40;;;11.00;99.90;;;;;;10456916;28;20213;-76
2024/01/03 10:58:50;;;;;;;2.93;1.50;;;11.00;99.90;;;;;;10476650;28;20193;-76
2024/01/03 11:04:04;;;;;;;2.13;1.33;;;11.20;99.90;;;;;;10456867;28;20275;-77
2024/01/03 11:09:07;;;;;;;4.17;1.53;;;11.40;99.90;;;;;;10496427;28;20208;-78
2024/01/03 11:14:26;;;;;;;1.70;1.60;;;11.60;99.90;;;;;;10501756;28;20266;-77
2024/01/03 11:19:30;;;;;;;2.07;1.87;;;11.70;99.90;;;;;;10494184;28;20389;-77
2024/01/03 11:24:53;;;;;;;1.97;1.87;;;11.70;99.90;;;;;;10460880;28;20549;-78
2024/01/03 11:29:57;;;;;;;2.60;1.50;;;11.80;99.90;;;;;;10491634;28;20706;-77
2024/01/03 11:35:00;;;;;;;1.43;1.30;;;11.80;99.90;;;;;;10464635;28;20220;-77
2024/01/03 11:40:06;;;;;;;1.50;1.40;;;11.80;99.90;;;;;;10479599;28;20693;-77
2024/01/03 11:45:13;;;;;;;2.50;1.23;;;11.70;99.90;;;;;;10478591;28;20200;-78
2024/01/03 11:50:17;;;;;;;1.70;1.00;;;11.70;99.90;;;;;;10488429;28;20633;-78
2024/01/03 11:55:21;;;;;;;2.37;1.50;;;11.60;99.90;;;;;;10462130;28;20220;-78
2024/01/03 12:00:24;;;;;;;1.30;1.20;;;11.50;99.90;;;;;;10493818;28;20209;-77
2024/01/03 12:05:28;;;;;;;1.87;1.77;;;11.60;99.90;;;;;;10467914;28;20265;-76
2024/01/03 12:10:30;;;;;;;1.83;1.60;;;11.70;99.90;;;;;;10495317;28;20228;-78
2024/01/03 12:15:34;;;;;;;3.37;1.30;;;11.60;99.90;;;;;;10501064;28;20642;-77
2024/01/03 12:20:36;;;;;;;4.30;1.30;;;11.90;99.90;;;;;;10491160;28;20243;-78
2024/01/03 12:25:39;;;;;;;2.40;1.73;;;12.00;99.90;;;;;;10461234;28;20719;-78
2024/01/03 12:30:42;;;;;;;3.13;1.47;;;11.90;99.90;;;;;;10493427;28;20216;-77
2024/01/03 12:35:47;;;;;;;1.70;1.60;;;11.80;99.90;;;;;;10463689;28;20223;-78
2024/01/03 12:40:49;;;;;;;4.77;2.07;;;11.60;99.90;;;;;;10497582;28;20331;-77
2024/01/03 12:45:53;;;;;;;2.00;1.77;;;11.40;99.90;;;;;;10493748;28;20197;-78
2024/01/03 12:50:55;;;;;;;1.80;1.30;;;11.30;99.90;;;;;;10441851;28;20212;-78
2024/01/03 12:55:57;;;;;;;2.03;1.20;;;11.30;99.90;;;;;;10491184;28;20213;-77
2024/01/03 13:01:01;;;;;;;2.63;1.30;;;11.30;99.90;;;;;;10456885;28;20257;-78
2024/01/03 13:06:04;;;;;;;1.20;1.20;;;11.40;99.90;;;;;;10494012;28;20662;-77
2024/01/03 13:11:06;;;;;;;1.40;1.30;;;11.40;99.90;;;;;;10473779;28;20217;-77
2024/01/03 13:16:11;;;;;;;2.17;1.40;;;11.40;99.90;;;;;;10489053;28;20273;-76
2024/01/03 13:21:13;;;;;;;1.73;1.30;;;11.50;99.90;;;;;;10452631;28;20223;-77
2024/01/03 13:26:15;;;;;;;1.67;1.13;;;11.50;99.90;;;;;;10490178;28;20242;-77
2024/01/03 13:31:19;;;;;;;1.23;1.13;;;11.60;99.90;;;;;;10452940;28;20237;-77
2024/01/03 13:36:22;;;;;;;3.13;1.40;;;11.70;99.90;;;;;;10492590;28;20289;-77
2024/01/03 13:41:28;;;;;;;1.77;1.20;;;11.80;99.90;;;;;;10474967;28;20216;-77
2024/01/03 13:46:32;;;;;;;4.00;1.60;;;11.80;99.90;;;;;;10490757;28;20219;-76
2024/01/03 13:51:34;;;;;;;1.50;1.30;;;11.70;99.90;;;;;;10433680;28;20282;-76
2024/01/03 13:56:36;;;;;;;1.60;1.50;;;11.70;99.90;;;;;;10492708;28;20208;-78
2024/01/03 14:01:40;;;;;;;1.73;1.40;;;11.60;99.90;;;;;;10454462;28;20217;-77
2024/01/03 14:06:43;;;;;;;1.40;1.30;;;11.40;99.90;;;;;;10479100;28;20197;-77
2024/01/03 14:11:45;;;;;;;1.50;1.40;;;11.30;99.90;;;;;;10481126;28;20224;-78
2024/01/03 14:16:49;;;;;;;1.43;1.33;;;11.10;99.90;;;;;;10453877;28;20267;-77
2024/01/03 14:21:51;;;;;;;1.70;1.60;;;11.00;99.90;;;;;;10451900;28;20213;-77
2024/01/03 14:26:54;;;;;;;1.67;1.57;;;10.90;99.90;;;;;;10490966;28;20299;-78
2024/01/03 14:31:58;;;;;;;2.90;2.07;;;10.90;99.90;;;;;;10474709;28;20589;-77
2024/01/03 14:37:06;;;;;;;3.40;2.67;;;10.90;99.90;;;;;;10471178;28;20225;-78
2024/01/03 14:42:10;;;;;;;2.30;2.20;;;10.80;99.90;;;;;;10495757;28;20327;-77
2024/01/03 14:47:15;;;;;;;2.10;2.00;;;10.80;99.90;;;;;;10501136;28;20215;-77
2024/01/03 14:52:18;;;;;;;3.07;2.00;;;10.70;99.90;;;;;;10458736;28;20229;-78
2024/01/03 14:57:20;;;;;;;3.07;2.30;;;10.60;99.90;;;;;;10497253;28;20662;-78
2024/01/03 15:02:24;;;;;;;3.30;2.47;;;10.50;99.90;;;;;;10461645;28;20262;-78
2024/01/03 15:07:27;;;;;;;2.23;2.00;;;10.50;99.90;;;;;;10496891;28;20204;-78
2024/01/03 15:12:29;;;;;;;3.33;2.20;;;10.40;99.90;;;;;;10498861;28;20220;-77
2024/01/03 15:17:33;;;;;;;2.07;1.97;;;10.40;99.90;;;;;;10441817;28;20271;-79
2024/01/03 15:22:36;;;;;;;2.00;1.90;;;10.40;99.90;;;;;;10468120;28;20649;-79
2024/01/03 15:27:38;;;;;;;2.20;2.10;;;10.40;99.90;;;;;;10485907;28;20201;-78
2024/01/03 15:32:42;;;;;;;2.30;1.80;;;10.40;99.90;;;;;;10449068;28;20233;-78
2024/01/03 15:37:44;;;;;;;1.90;1.80;;;10.40;99.90;;;;;;10487480;28;20228;-80
2024/01/03 15:42:47;;;;;;;2.43;1.90;;;10.40;99.90;;;;;;10502644;28;20669;-78
2024/01/03 15:47:51;;;;;;;2.37;2.20;;;10.40;99.90;;;;;;10489775;28;20205;-77
2024/01/03 15:52:54;;;;;;;1.83;1.73;;;10.40;99.90;;;;;;10484581;28;20216;-78
2024/01/03 15:57:56;;;;;;;1.90;1.80;;;10.40;99.90;;;;;;10496662;28;20490;-77
2024/01/03 16:03:00;;;;;;;3.90;1.80;;;10.40;99.90;;;;;;10504819;28;20729;-78
2024/01/03 16:08:03;;;;;;;1.77;1.67;;;10.50;99.90;;;;;;10490214;28;20189;-78
2024/01/03 16:13:05;;;;;;;1.50;1.40;;;10.50;99.90;;;;;;10481022;28;20716;-78
2024/01/03 16:18:09;;;;;;;1.80;1.70;;;10.50;99.90;;;;;;10498159;28;20275;-78
2024/01/03 16:23:11;;;;;;;3.23;1.57;;;10.60;99.90;;;;;;10503773;28;20228;-78
2024/01/03 16:28:14;;;;;;;2.20;1.40;;;10.60;99.90;;;;;;10461439;28;20204;-77
2024/01/03 16:33:17;;;;;;;2.13;1.93;;;10.60;99.90;;;;;;10488857;28;20638;-78
2024/01/03 16:38:20;;;;;;;2.40;2.10;;;10.60;99.90;;;;;;10489735;28;20200;-78
2024/01/03 16:43:22;;;;;;;4.37;3.30;;;10.70;99.90;;;;;;10484291;28;20636;-78
2024/01/03 16:48:26;;;;;;;3.70;2.20;;;10.70;99.90;;;;;;10485436;28;20800;-78
2024/01/03 16:53:28;;;;;;;3.27;1.93;;;10.70;99.90;;;;;;10487055;28;20228;-78
2024/01/03 16:58:30;;;;;;;1.77;1.67;;;10.80;99.90;;;;;;10469185;28;20331;-78
2024/01/03 17:03:34;;;;;;;3.03;1.73;;;10.80;99.90;;;;;;10466792;28;20213;-79
2024/01/03 17:08:37;;;;;;;1.67;1.57;;;10.90;99.90;;;;;;10489778;28;20192;-78
2024/01/03 17:13:39;;;;;;;2.60;2.07;;;10.90;99.90;;;;;;10473750;28;20273;-78
2024/01/03 17:18:44;;;;;;;1.80;1.70;;;10.90;99.90;;;;;;10492883;28;20269;-79
2024/01/03 17:23:47;;;;;;;1.90;1.80;;;10.90;99.90;;;;;;10464779;28;20217;-79
2024/01/03 17:28:51;;;;;;;3.70;3.23;;;11.00;99.90;;;;;;10490051;28;20222;-79
2024/01/03 17:33:56;;;;;;;2.93;1.80;;;11.10;99.90;;;;;;10466303;28;20621;-78
2024/01/03 17:38:58;;;;;;;2.20;2.10;;;11.20;99.90;;;;;;10490018;28;20209;-78
2024/01/03 17:44:00;;;;;;;3.30;3.00;;;11.10;99.90;;;;;;10498170;28;20220;-77
2024/01/03 17:49:04;;;;;;;6.03;3.23;;;10.90;99.90;;;;;;10466521;28;20205;-77
2024/01/03 17:54:06;;;;;;;4.10;3.90;;;10.60;99.90;;;;;;10488235;28;20213;-79
2024/01/03 17:59:10;;;;;;;4.40;4.00;;;10.40;99.90;;;;;;10454388;28;20737;-78
2024/01/03 18:04:14;;;;;;;5.63;4.77;;;10.20;99.90;;;;;;10492043;28;20215;-76
2024/01/03 18:09:16;;;;;;;5.47;5.07;;;10.10;99.90;;;;;;10477196;28;20224;-78
2024/01/03 18:14:19;;;;;;;5.93;5.70;;;9.90;99.90;;;;;;10481881;28;20228;-76
2024/01/03 18:19:23;;;;;;;6.10;5.70;;;9.80;99.90;;;;;;10463104;28;20197;-77
2024/01/03 18:24:25;;;;;;;5.30;5.10;;;9.70;99.90;;;;;;10464183;28;20193;-76
2024/01/03 18:29:28;;;;;;;5.90;5.70;;;9.50;99.90;;;;;;10480426;28;20229;-76
2024/01/03 18:34:32;;;;;;;4.80;4.60;;;9.40;99.90;;;;;;10461820;28;20240;-77
2024/01/03 18:39:36;;;;;;;6.10;5.90;;;9.40;99.90;;;;;;10489815;28;20232;-77
2024/01/03 18:44:39;;;;;;;4.87;4.77;;;9.30;99.90;;;;;;10474998;28;20204;-76
2024/01/03 18:49:42;;;;;;;4.93;4.73;;;9.20;99.90;;;;;;10464035;28;20347;-76
2024/01/03 18:54:45;;;;;;;4.70;4.50;;;9.10;99.90;;;;;;10478068;28;20225;-77
2024/01/03 18:59:47;;;;;;;4.43;4.33;;;9.10;99.90;;;;;;10453651;28;20212;-76
2024/01/03 19:04:51;;;;;;;3.90;3.80;;;9.00;99.90;;;;;;10491825;28;20300;-76
2024/01/03 19:09:55;;;;;;;4.40;4.30;;;9.00;99.90;;;;;;10463993;28;20217;-76
2024/01/03 19:14:57;;;;;;;3.20;3.10;;;8.90;99.90;;;;;;10476560;28;20827;-76
2024/01/03 19:20:02;;;;;;;3.57;3.40;;;9.00;99.90;;;;;;10489818;28;20251;-76
2024/01/03 19:25:06;;;;;;;1.80;1.80;;;9.00;99.90;;;;;;10464513;28;20202;-76
2024/01/03 19:30:10;;;;;;;3.00;2.80;;;9.10;99.90;;;;;;10473321;28;20231;-76
2024/01/03 19:35:13;;;;;;;2.93;2.83;;;9.10;99.90;;;;;;10445117;28;20248;-75
2024/01/03 19:40:16;;;;;;;3.30;3.00;;;9.20;99.90;;;;;;10485505;28;20695;-76
2024/01/03 19:45:19;;;;;;;2.60;2.40;;;9.30;99.90;;;;;;10489257;28;20201;-76
2024/01/03 19:50:23;;;;;;;2.20;2.10;;;9.30;99.90;;;;;;10464206;28;20770;-75
2024/01/03 19:55:26;;;;;;;2.40;2.20;;;9.30;99.90;;;;;;10473373;28;20216;-75
2024/01/03 20:00:28;;;;;;;2.30;2.20;;;9.30;99.90;;;;;;10478094;28;20225;-76
2024/01/03 20:05:32;;;;;;;2.40;2.30;;;9.40;99.90;;;;;;10457668;28;20200;-76
2024/01/03 20:10:34;;;;;;;3.57;2.53;;;9.50;99.90;;;;;;10464929;28;20615;-77
2024/01/03 20:15:37;;;;;;;4.37;2.27;;;9.50;99.90;;;;;;10463813;28;20247;-76
2024/01/03 20:20:41;;;;;;;1.97;1.70;;;9.60;99.90;;;;;;10469587;28;20224;-76
2024/01/03 20:25:43;;;;;;;2.90;2.00;;;9.60;99.90;;;;;;10467208;28;20984;-76
2024/01/03 20:30:46;;;;;;;2.10;2.00;;;9.70;99.90;;;;;;10485912;28;20282;-75
2024/01/03 20:35:50;;;;;;;2.20;2.10;;;9.70;99.90;;;;;;10459192;28;20216;-77
2024/01/03 20:40:52;;;;;;;2.30;1.50;;;9.60;99.90;;;;;;10486189;28;20212;-77
2024/01/03 20:45:54;;;;;;;2.10;2.00;;;9.40;99.90;;;;;;10477018;28;20700;-76
2024/01/03 20:50:58;;;;;;;2.43;2.23;;;9.40;99.90;;;;;;10453509;28;20224;-76
2024/01/03 20:56:00;;;;;;;2.30;2.20;;;9.40;99.90;;;;;;10464840;28;20574;-77
2024/01/03 21:01:03;;;;;;;2.20;2.10;;;9.40;99.90;;;;;;10467939;28;20220;-76
2024/01/03 21:06:08;;;;;;;2.10;2.00;;;9.40;99.90;;;;;;10486548;28;20197;-76
2024/01/03 21:11:10;;;;;;;2.73;2.63;;;9.50;99.90;;;;;;10486183;28;20228;-76
2024/01/03 21:16:15;;;;;;;2.50;2.30;;;9.50;99.90;;;;;;10485643;28;20888;-76
2024/01/03 21:21:19;;;;;;;2.20;1.80;;;9.60;99.90;;;;;;10485756;28;20223;-76
2024/01/03 21:26:21;;;;;;;3.57;1.90;;;9.60;99.90;;;;;;10483275;28;20203;-76
2024/01/03 21:31:24;;;;;;;1.80;1.70;;;9.70;99.90;;;;;;10464910;28;20283;-75
2024/01/03 21:36:28;;;;;;;2.10;2.00;;;9.70;99.90;;;;;;10459086;28;20220;-75
2024/01/03 21:41:30;;;;;;;4.00;2.03;;;9.70;99.90;;;;;;10469764;28;20221;-76
2024/01/03 21:46:33;;;;;;;1.90;1.80;;;9.80;99.90;;;;;;10466993;28;20192;-75
2024/01/03 21:51:41;;;;;;;3.33;1.90;;;9.80;99.90;;;;;;10492698;28;20246;-76
2024/01/03 21:56:44;;;;;;;1.60;1.50;;;9.80;99.90;;;;;;10498194;28;20220;-76
2024/01/03 22:01:48;;;;;;;3.63;2.10;;;9.90;99.90;;;;;;10498493;28;20219;-76
2024/01/03 22:06:53;;;;;;;3.43;1.93;;;9.90;99.90;;;;;;10483327;28;20204;-76
2024/01/03 22:11:57;;;;;;;1.90;1.80;;;9.80;99.90;;;;;;10460143;28;20217;-77
2024/01/03 22:16:59;;;;;;;1.80;1.70;;;9.80;99.90;;;;;;10475017;28;20224;-76
2024/01/03 22:22:03;;;;;;;2.37;1.63;;;9.90;99.90;;;;;;10478682;28;20713;-76
2024/01/03 22:27:05;;;;;;;1.93;1.80;;;9.80;99.90;;;;;;10496494;28;20258;-76
2024/01/03 22:32:08;;;;;;;5.03;2.00;;;9.80;99.90;;;;;;10478408;28;20308;-76
2024/01/03 22:37:11;;;;;;;1.80;1.50;;;9.80;99.90;;;;;;10495105;28;20227;-76
2024/01/03 22:42:14;;;;;;;4.10;2.23;;;9.90;99.90;;;;;;10479455;28;20220;-77
2024/01/03 22:47:16;;;;;;;1.93;1.83;;;9.80;99.90;;;;;;10495737;28;20258;-77
2024/01/03 22:52:20;;;;;;;1.80;1.70;;;9.80;99.90;;;;;;10495438;28;20220;-76
2024/01/03 22:57:22;;;;;;;1.93;1.80;;;9.80;99.90;;;;;;10495877;28;20644;-78
2024/01/03 23:02:26;;;;;;;3.20;2.13;;;9.90;99.90;;;;;;10495075;28;20219;-77
2024/01/03 23:07:30;;;;;;;5.00;1.90;;;9.90;99.90;;;;;;10460503;28;20609;-76
2024/01/03 23:12:32;;;;;;;2.00;1.90;;;10.00;99.90;;;;;;10475997;28;20227;-76
2024/01/03 23:17:34;;;;;;;2.07;1.97;;;10.00;99.90;;;;;;10476890;28;20212;-75
2024/01/03 23:22:38;;;;;;;2.40;1.83;;;10.00;99.90;;;;;;10495440;28;20247;-76
2024/01/03 23:27:40;;;;;;;1.57;1.50;;;10.00;99.90;;;;;;10494432;28;20204;-76
2024/01/03 23:32:43;;;;;;;1.83;1.73;;;10.00;99.90;;;;;;10494206;28;20669;-77
2024/01/03 23:37:46;;;;;;;1.73;1.60;;;10.00;99.90;;;;;;10494443;28;20667;-77
2024/01/03 23:42:49;;;;;;;3.37;1.90;;;9.90;99.90;;;;;;10471873;28;20216;-77
2024/01/03 23:47:52;;;;;;;1.83;1.73;;;9.90;99.90;;;;;;10493997;28;20189;-77
2024/01/03 23:52:56;;;;;;;2.80;1.93;;;9.80;99.90;;;;;;10493751;28;20220;-77
2024/01/03 23:57:58;;;;;;;1.70;1.60;;;9.90;99.90;;;;;;10493482;28;20220;-77
